North Zulch, TX (77872)

12:52 PM CST on January 26, 2015 (GMT -0600)
Bennett's Retreat; Madison Co, TX | Change Station
CLOSE
Current Station
Personal Weather Station
Location: Normangee, TX
Elevation: 374 ft
Nearby Weather Stations

Elev 374 ft 31.01 °N, 96.03 °W | Updated 14 seconds ago

Clear
Clear
67.5 °F
Feels Like 67.5 °F
N
7.4
Wind Variable Wind from West
Gusts 9.8 mph

Today
High -- | Low -- °F
--% Chance of Precip.
Yesterday
High -- | Low -- °F
Precip. -- in
7:19 AM 5:54 PM
Waxing Crescent, 45% visible
Pressure 30.24 in
Visibility 10.0 miles
Clouds Clear
Dew Point 38 °F
Humidity 34%
Rainfall 0.00 in
Snow Depth Not available.
UV 5 out of 12
Pollen 6.60 out of 12
Air Quality Not available.
Flu Activity Not available.
METAR KCFD 261835Z AUTO 25006KT 10SM CLR 16/01 A3024 RMK AO2 T01640010

More Conditions Fewer Conditions

Pressure 30.24 in
Visibility 10.0 miles
Clouds Clear
Dew Point 38 °F
Humidity 34%
Rainfall 0.00 in
Snow Depth Not available.
UV 5 out of 12
Pollen 6.60 out of 12
Air Quality Not available.
Flu Activity Not available.
METAR KCFD 261835Z AUTO 25006KT 10SM CLR 16/01 A3024 RMK AO2 T01640010

More Conditions Fewer Conditions

10-Day Weather Forecast

Almanac

Astronomy

Jan. 26, 2015 Rise Set
Actual Time
Civil Twilight
Nautical Twilight
Astronomical Twilight
Moon
Length of Visible Light
Length of Day
Tomorrow will be .
, % of the Moon is Illuminated

Today's Extremes

State Highs State Lows

Community

WunderPhotos

Upload Photos

1,790,312 photos uploaded!

WunderBlogs® & News

Nearby

Air Quality

  Air Quality AQ Index Pollutant
Not available.

Snow Depth

Station Depth Elevation

Earthquake Activity

City Distance Mag. Time & Date
Minimum magnitude displayed is 2.5.

Coastal Water Temperatures

Place Temperature

Nearby Weather Stations